Time;durP1;ratioP1;P1;durP2;ratioP2;P2;SDS_P1;SDS_P2;PMS_P1;PMS_P2;Temp;Humidity;BMP_temperature;BMP_pressure;BME280_temperature;BME280_humidity;BME280_pressure;Samples;Min_cycle;Max_cycle;Signal;HPM_P1;HPM_P2
2023/01/03 00:01:45;;;;;;;39.23;21.73;;;;;;;4.59;73.61;97780.28;1590903;87;25888;-72
2023/01/03 00:04:13;;;;;;;38.05;21.77;;;;;;;4.52;73.53;97771.26;1654936;83;27455;-75
2023/01/03 00:06:46;;;;;;;37.85;22.93;;;;;;;4.44;73.59;97780.61;1715519;82;25918;-73
2023/01/03 00:09:17;;;;;;;35.80;21.07;;;;;;;4.39;73.64;97786.09;1688606;80;25326;-72
2023/01/03 00:14:33;;;;;;;35.63;20.85;;;;;;;4.34;73.99;97783.93;1615379;86;25773;-72
2023/01/03 00:17:01;;;;;;;33.40;20.50;;;;;;;4.29;73.95;97783.07;1621052;85;28345;-73
2023/01/03 00:19:35;;;;;;;32.60;19.55;;;;;;;4.29;73.96;97787.58;1603154;87;25713;-73
2023/01/03 00:22:02;;;;;;;35.33;20.23;;;;;;;4.26;73.97;97784.72;1631908;85;25840;-73
2023/01/03 00:24:28;;;;;;;36.53;21.90;;;;;;;4.23;74.18;97785.53;1616613;85;25772;-73
2023/01/03 00:26:55;;;;;;;33.92;21.30;;;;;;;4.22;74.27;97789.23;1618758;86;25709;-73
2023/01/03 00:29:22;;;;;;;31.85;20.75;;;;;;;4.20;74.25;97792.56;1620718;85;28036;-73
2023/01/03 00:31:48;;;;;;;36.50;20.27;;;;;;;4.16;74.22;97792.55;1636855;85;25798;-73
2023/01/03 00:34:15;;;;;;;33.15;20.72;;;;;;;4.15;74.34;97797.55;1603375;87;25990;-73
2023/01/03 00:36:42;;;;;;;31.20;19.48;;;;;;;4.08;74.25;97796.53;1643837;85;26481;-72
2023/01/03 00:39:10;;;;;;;30.08;19.40;;;;;;;4.03;74.43;97812.19;1629437;85;25712;-75
2023/01/03 00:41:38;;;;;;;29.37;19.10;;;;;;;4.04;74.50;97813.87;1636659;85;27471;-73
2023/01/03 00:44:05;;;;;;;28.77;17.87;;;;;;;3.98;74.55;97813.50;1603208;87;25880;-73
2023/01/03 00:46:32;;;;;;;28.12;17.85;;;;;;;3.97;74.55;97822.53;1603304;87;25760;-74
2023/01/03 00:48:59;;;;;;;28.62;17.90;;;;;;;3.94;74.59;97832.20;1603369;87;25774;-71
2023/01/03 00:51:29;;;;;;;31.55;17.62;;;;;;;3.89;74.47;97834.49;1638603;85;25749;-74
2023/01/03 00:53:58;;;;;;;29.25;18.48;;;;;;;3.86;74.50;97836.17;1697757;82;27364;-73
2023/01/03 00:56:29;;;;;;;30.05;18.48;;;;;;;3.84;74.57;97839.49;1738119;80;25709;-73
2023/01/03 00:58:57;;;;;;;28.67;18.70;;;;;;;3.80;74.58;97836.79;1747467;80;25692;-73
2023/01/03 01:01:31;;;;;;;30.55;17.98;;;;;;;3.78;74.63;97845.95;1764251;78;25718;-75
2023/01/03 01:04:11;;;;;;;29.23;18.73;;;;;;;3.75;74.66;97839.09;1792699;79;25708;-73
2023/01/03 01:06:44;;;;;;;29.87;19.20;;;;;;;3.74;74.72;97847.28;1801013;79;27010;-73
2023/01/03 01:09:16;;;;;;;28.70;18.98;;;;;;;3.67;74.73;97839.54;1797479;79;25784;-73
2023/01/03 01:11:42;;;;;;;28.40;19.02;;;;;;;3.65;74.90;97847.70;1807273;79;25752;-73
2023/01/03 01:14:20;;;;;;;28.45;19.17;;;;;;;3.65;74.90;97849.04;1806661;79;26502;-73
2023/01/03 01:16:57;;;;;;;30.92;20.50;;;;;;;3.60;74.89;97840.68;1799879;78;25828;-73
2023/01/03 01:19:31;;;;;;;25.97;18.07;;;;;;;3.56;75.14;97841.98;1805636;79;27411;-74
2023/01/03 01:21:58;;;;;;;29.48;18.07;;;;;;;3.60;75.33;97836.67;1806404;79;25729;-75
2023/01/03 01:24:25;;;;;;;32.38;20.17;;;;;;;3.60;75.28;97840.68;1806654;79;25888;-73
2023/01/03 01:26:52;;;;;;;27.87;18.07;;;;;;;3.58;75.24;97840.00;1806526;79;25758;-72
2023/01/03 01:29:19;;;;;;;30.72;18.40;;;;;;;3.57;75.39;97843.66;1806439;78;26514;-73
2023/01/03 01:31:47;;;;;;;30.08;17.17;;;;;;;3.61;75.43;97845.03;1803403;79;28557;-74
2023/01/03 01:34:14;;;;;;;27.93;17.55;;;;;;;3.59;75.48;97851.02;1800515;79;25460;-75
2023/01/03 01:36:43;;;;;;;28.87;18.92;;;;;;;3.58;75.43;97852.84;1797358;79;25781;-72
2023/01/03 01:39:21;;;;;;;22.80;16.00;;;;;;;3.54;75.43;97850.14;1800692;79;25566;-72
2023/01/03 01:44:56;;;;;;;26.45;16.27;;;;;;;3.50;75.75;97862.64;1801364;79;27427;-73
2023/01/03 01:47:55;;;;;;;29.20;16.50;;;;;;;3.53;75.99;97856.97;1806682;79;25468;-73
2023/01/03 01:50:36;;;;;;;23.85;15.63;;;;;;;3.53;76.04;97862.30;1797182;79;25717;-74
2023/01/03 01:53:19;;;;;;;24.67;15.45;;;;;;;3.52;76.06;97864.63;1805126;79;25676;-72
2023/01/03 01:56:07;;;;;;;29.07;16.27;;;;;;;3.52;76.06;97868.14;1776296;79;25856;-73
2023/01/03 01:58:39;;;;;;;25.77;16.07;;;;;;;3.50;75.93;97870.65;1791165;79;27360;-72
2023/01/03 02:01:10;;;;;;;21.52;15.32;;;;;;;3.46;75.91;97869.27;1791148;79;25767;-74
2023/01/03 02:03:38;;;;;;;25.32;15.48;;;;;;;3.41;75.97;97871.06;1791346;79;25715;-73
2023/01/03 02:06:09;;;;;;;23.80;15.50;;;;;;;3.42;76.03;97871.90;1790899;79;25893;-72
2023/01/03 02:08:36;;;;;;;22.13;14.85;;;;;;;3.36;75.96;97869.87;1770104;81;25870;-72
2023/01/03 02:11:32;;;;;;;22.02;13.85;;;;;;;3.33;75.98;97875.50;1769900;81;27367;-72
2023/01/03 02:14:46;;;;;;;22.32;14.98;;;;;;;3.30;76.09;97873.14;1696787;83;25820;-72
2023/01/03 02:17:30;;;;;;;24.63;14.47;;;;;;;3.26;76.22;97876.11;1697831;83;25769;-73
2023/01/03 02:20:33;;;;;;;19.00;13.32;;;;;;;3.28;76.27;97879.12;1653319;85;25762;-72
2023/01/03 02:23:35;;;;;;;18.42;12.95;;;;;;;3.21;76.30;97881.08;1658250;86;25811;-73
2023/01/03 02:26:22;;;;;;;12.93;9.63;;;;;;;3.16;76.27;97867.36;1658233;85;28246;-75
2023/01/03 02:29:11;;;;;;;19.40;13.32;;;;;;;3.15;76.46;97872.84;1654592;85;25818;-72
2023/01/03 02:31:45;;;;;;;20.45;13.35;;;;;;;3.16;76.53;97879.36;1658101;86;25751;-72
2023/01/03 02:34:45;;;;;;;18.15;13.15;;;;;;;3.13;76.46;97877.02;1684110;83;25754;-73
2023/01/03 02:37:40;;;;;;;19.05;12.50;;;;;;;3.09;76.44;97874.31;1687102;83;25968;-73
2023/01/03 02:40:37;;;;;;;18.52;12.40;;;;;;;3.09;76.49;97884.98;1687148;83;27473;-72
2023/01/03 02:43:26;;;;;;;21.50;13.38;;;;;;;3.08;76.58;97883.79;1687252;83;25809;-73
2023/01/03 02:46:22;;;;;;;21.35;14.13;;;;;;;3.03;76.66;97886.06;1687130;83;25862;-73
2023/01/03 02:49:00;;;;;;;16.97;12.68;;;;;;;3.00;76.69;97890.39;1686876;84;25960;-73
2023/01/03 02:51:38;;;;;;;20.75;12.88;;;;;;;3.00;76.67;97895.23;1693871;82;25522;-75
2023/01/03 02:54:08;;;;;;;19.42;12.95;;;;;;;2.98;76.65;97898.55;1693008;82;28153;-73
2023/01/03 02:56:40;;;;;;;18.70;12.03;;;;;;;2.95;76.66;97891.33;1696780;82;25737;-73
2023/01/03 02:59:11;;;;;;;19.35;13.50;;;;;;;2.94;76.72;97887.83;1630238;86;25747;-73
2023/01/03 03:01:43;;;;;;;20.02;13.15;;;;;;;2.96;76.71;97897.02;1601034;88;25645;-72
2023/01/03 03:04:13;;;;;;;19.73;12.58;;;;;;;2.93;76.58;97894.14;1621248;86;26984;-73
2023/01/03 03:07:00;;;;;;;19.02;13.32;;;;;;;2.89;76.70;97904.30;1584208;89;27428;-73
2023/01/03 03:09:26;;;;;;;16.42;12.73;;;;;;;2.89;76.81;97895.45;1581006;89;25966;-74
2023/01/03 03:14:43;;;;;;;19.45;12.88;;;;;;;2.86;76.99;97895.27;1603900;87;25869;-72
2023/01/03 03:17:19;;;;;;;19.55;14.70;;;;;;;2.86;76.99;97897.09;1581524;89;26123;-73
2023/01/03 03:26:03;;;;;;;23.05;14.98;;;;;;;2.80;77.26;97895.84;1538515;91;25861;-74
2023/01/03 03:28:35;;;;;;;24.72;15.32;;;;;;;2.87;77.54;97901.44;1555452;90;25839;-73
2023/01/03 03:31:22;;;;;;;25.17;15.53;;;;;;;2.94;77.63;97903.83;1555427;91;26369;-74
2023/01/03 03:33:56;;;;;;;26.75;15.60;;;;;;;2.96;77.63;97901.85;1555531;92;28321;-73
2023/01/03 03:36:53;;;;;;;28.67;17.45;;;;;;;2.95;77.71;97901.51;1559921;89;26038;-73
2023/01/03 03:45:40;;;;;;;28.85;14.85;;;;;;;3.12;78.25;97908.69;1613436;87;26888;-73
2023/01/03 03:48:12;;;;;;;22.70;14.78;;;;;;;3.16;78.45;97899.86;1592234;89;27466;-74
2023/01/03 03:50:50;;;;;;;22.07;14.60;;;;;;;3.21;78.60;97902.42;1592207;89;25854;-74
2023/01/03 03:53:20;;;;;;;22.52;14.35;;;;;;;3.30;78.62;97899.82;1614291;88;25823;-72
2023/01/03 03:55:52;;;;;;;21.97;14.43;;;;;;;3.37;78.71;97904.91;1590435;90;25826;-73
2023/01/03 03:58:26;;;;;;;22.32;14.53;;;;;;;3.43;78.91;97910.94;1584282;89;25854;-74
2023/01/03 04:00:55;;;;;;;22.60;13.78;;;;;;;3.49;79.01;97909.84;1584372;88;28313;-73
2023/01/03 04:03:23;;;;;;;22.62;14.80;;;;;;;3.58;79.10;97910.73;1635724;84;25852;-72
2023/01/03 04:05:57;;;;;;;25.52;14.60;;;;;;;3.62;79.15;97912.11;1684952;84;25945;-73
2023/01/03 04:08:24;;;;;;;23.10;14.85;;;;;;;3.69;79.23;97908.31;1663609;85;26503;-73
2023/01/03 04:11:04;;;;;;;22.25;15.38;;;;;;;3.74;79.24;97906.86;1651542;86;25838;-71
2023/01/03 04:13:21;;;;;;;23.52;14.35;;;;;;;3.81;79.32;97903.89;1647849;86;27415;-73
2023/01/03 04:15:47;;;;;;;24.65;13.78;;;;;;;3.90;79.47;97912.29;1651466;86;25798;-73
2023/01/03 04:18:14;;;;;;;18.15;12.58;;;;;;;3.99;79.57;97910.00;1651615;86;25780;-73
2023/01/03 04:20:41;;;;;;;20.08;13.35;;;;;;;4.04;79.57;97910.88;1667414;85;25743;-73
2023/01/03 04:23:08;;;;;;;26.27;14.30;;;;;;;4.10;79.55;97920.95;1708065;82;25804;-72
2023/01/03 04:25:34;;;;;;;21.02;12.98;;;;;;;4.13;79.74;97913.09;1769318;81;27199;-72
2023/01/03 04:28:01;;;;;;;19.92;12.70;;;;;;;4.18;79.76;97921.48;1769268;80;25852;-72
2023/01/03 04:30:28;;;;;;;22.42;13.80;;;;;;;4.26;80.04;97922.84;1748199;81;25409;-72
2023/01/03 04:32:55;;;;;;;20.77;12.80;;;;;;;4.31;79.90;97930.73;1770009;80;26511;-73
2023/01/03 04:35:22;;;;;;;18.10;12.25;;;;;;;4.34;79.94;97921.08;1761711;80;25781;-72
2023/01/03 04:37:49;;;;;;;17.55;12.63;;;;;;;4.41;79.89;97927.10;1761456;80;27378;-74
2023/01/03 04:40:16;;;;;;;19.82;12.82;;;;;;;4.45;80.00;97925.30;1759083;80;25611;-73
2023/01/03 04:45:27;;;;;;;16.48;12.30;;;;;;;4.55;80.05;97942.05;1761651;80;26359;-72
2023/01/03 04:47:54;;;;;;;18.87;12.95;;;;;;;4.60;80.01;97945.55;1759981;80;25822;-74
2023/01/03 04:50:20;;;;;;;19.65;11.75;;;;;;;4.65;80.00;97952.11;1761618;80;27365;-73
2023/01/03 04:52:47;;;;;;;20.62;12.55;;;;;;;4.68;80.05;97957.64;1761724;80;25852;-73
2023/01/03 04:55:14;;;;;;;21.95;12.68;;;;;;;4.72;80.04;97969.67;1732683;79;25753;-73
2023/01/03 04:57:40;;;;;;;24.20;14.07;;;;;;;4.75;80.07;97969.86;1786025;78;25722;-72
2023/01/03 05:00:09;;;;;;;22.52;15.48;;;;;;;4.79;80.06;97971.22;1776196;77;25643;-73
2023/01/03 05:02:36;;;;;;;23.95;14.47;;;;;;;4.84;80.12;97972.39;1739084;79;28176;-73
2023/01/03 05:05:03;;;;;;;23.07;12.45;;;;;;;4.90;80.13;97977.11;1798914;78;26382;-72
2023/01/03 05:07:30;;;;;;;18.82;12.70;;;;;;;4.97;80.17;97976.80;1778511;78;25771;-73
2023/01/03 05:09:56;;;;;;;20.55;12.33;;;;;;;5.02;80.15;97976.31;1786782;78;25852;-73
2023/01/03 05:12:23;;;;;;;17.67;12.33;;;;;;;5.07;80.13;97976.68;1762219;78;25688;-73
2023/01/03 05:14:50;;;;;;;19.60;12.88;;;;;;;5.10;80.03;97974.16;1762151;78;27351;-73
2023/01/03 05:17:19;;;;;;;21.87;12.90;;;;;;;5.11;79.99;97982.02;1766604;78;26415;-74
2023/01/03 05:28:03;;;;;;;25.60;14.78;;;;;;;5.25;79.99;97990.77;1739316;79;27404;-74
2023/01/03 05:30:30;;;;;;;25.40;14.58;;;;;;;5.22;79.98;97975.02;1759668;79;26001;-74
2023/01/03 05:32:57;;;;;;;26.48;15.55;;;;;;;5.24;79.97;97989.09;1759537;79;25754;-73
2023/01/03 05:35:24;;;;;;;27.27;15.40;;;;;;;5.27;80.01;97986.59;1759984;79;25765;-73
2023/01/03 05:37:53;;;;;;;29.40;17.73;;;;;;;5.32;80.03;97993.61;1759952;79;25803;-72
2023/01/03 05:40:20;;;;;;;32.67;16.95;;;;;;;5.33;80.05;97996.13;1760004;79;27461;-73
2023/01/03 05:42:47;;;;;;;30.15;17.57;;;;;;;5.38;80.10;97993.80;1759783;79;26282;-73
2023/01/03 05:45:13;;;;;;;27.45;17.17;;;;;;;5.41;80.10;97993.48;1760368;79;25345;-72
2023/01/03 05:47:40;;;;;;;31.95;18.42;;;;;;;5.43;80.06;97998.68;1759691;79;25771;-73
2023/01/03 05:50:07;;;;;;;31.23;18.67;;;;;;;5.46;80.08;97994.31;1760023;79;25301;-73
2023/01/03 05:52:34;;;;;;;27.27;17.02;;;;;;;5.49;80.07;98002.02;1760023;79;27543;-75
2023/01/03 05:55:00;;;;;;;29.80;17.32;;;;;;;5.52;80.05;98000.36;1759906;79;25698;-73
2023/01/03 05:57:27;;;;;;;30.10;18.15;;;;;;;5.55;80.05;98004.05;1759954;79;25373;-73
2023/01/03 05:59:54;;;;;;;29.40;17.80;;;;;;;5.57;80.00;98005.20;1759974;79;26516;-75
2023/01/03 06:02:20;;;;;;;32.88;19.30;;;;;;;5.57;79.99;98002.02;1759894;79;25756;-73
2023/01/03 06:04:47;;;;;;;36.08;21.80;;;;;;;5.58;80.02;98002.36;1759854;79;28164;-75
2023/01/03 06:07:14;;;;;;;36.70;21.33;;;;;;;5.60;80.01;98007.06;1759730;79;25884;-73
2023/01/03 06:09:40;;;;;;;34.65;20.55;;;;;;;5.64;80.02;98011.59;1759921;79;25845;-73
2023/01/03 06:12:07;;;;;;;35.23;20.97;;;;;;;5.65;79.98;98008.75;1759942;79;26431;-72
2023/01/03 06:14:34;;;;;;;35.50;21.05;;;;;;;5.67;80.00;98011.27;1759832;79;25900;-73
2023/01/03 06:19:45;;;;;;;41.75;25.37;;;;;;;5.69;80.03;98018.61;1762045;78;25722;-72
2023/01/03 06:22:12;;;;;;;36.58;23.15;;;;;;;5.70;80.04;98021.63;1762170;78;25675;-73
2023/01/03 06:24:39;;;;;;;40.55;25.27;;;;;;;5.71;80.05;98032.68;1779845;78;25869;-73
2023/01/03 06:27:05;;;;;;;39.92;24.77;;;;;;;5.73;80.09;98037.38;1783382;78;25658;-72
2023/01/03 06:29:32;;;;;;;41.33;26.35;;;;;;;5.75;80.05;98047.43;1815083;78;27418;-75
2023/01/03 06:31:59;;;;;;;49.15;31.55;;;;;;;5.75;80.04;98048.77;1794278;77;25851;-73
2023/01/03 06:34:26;;;;;;;53.05;33.53;;;;;;;5.77;80.12;98046.77;1812479;77;25670;-73
2023/01/03 06:36:52;;;;;;;51.63;34.05;;;;;;;5.77;80.12;98050.28;1784152;77;25719;-73
2023/01/03 06:39:19;;;;;;;57.60;32.73;;;;;;;5.80;80.16;98063.33;1786700;77;25685;-75
2023/01/03 06:41:45;;;;;;;43.15;27.27;;;;;;;5.84;80.12;98071.88;1813998;78;27353;-73
2023/01/03 06:44:13;;;;;;;43.68;27.67;;;;;;;5.85;80.10;98066.86;1783912;78;25681;-72
2023/01/03 06:54:58;;;;;;;43.48;25.92;;;;;;;5.95;80.18;98072.92;1830365;77;27426;-72
2023/01/03 06:57:25;;;;;;;40.85;25.77;;;;;;;5.97;80.19;98070.92;1793379;78;25705;-75
2023/01/03 06:59:52;;;;;;;38.45;23.67;;;;;;;6.02;80.17;98073.95;1813224;77;25645;-72
2023/01/03 07:02:19;;;;;;;40.58;24.12;;;;;;;6.04;80.07;98080.46;1787227;77;25426;-74
2023/01/03 07:04:46;;;;;;;37.75;24.47;;;;;;;6.05;80.11;98080.30;1808807;78;26029;-73
2023/01/03 07:07:13;;;;;;;38.40;23.25;;;;;;;6.06;80.09;98083.32;1797988;77;27995;-73
2023/01/03 07:09:39;;;;;;;38.38;22.30;;;;;;;6.07;80.05;98090.36;1809930;77;25800;-73
2023/01/03 07:14:51;;;;;;;37.17;21.80;;;;;;;6.11;80.04;98101.59;1784566;78;26374;-73
2023/01/03 07:17:18;;;;;;;31.42;18.87;;;;;;;6.10;80.02;98106.11;1788727;77;25681;-72
2023/01/03 07:19:44;;;;;;;36.53;19.98;;;;;;;6.10;80.01;98104.78;1812235;77;27396;-73
2023/01/03 07:22:11;;;;;;;30.45;18.00;;;;;;;6.13;80.07;98105.80;1784437;77;25687;-74
2023/01/03 07:24:38;;;;;;;33.30;17.23;;;;;;;6.16;80.12;98109.15;1784465;78;25783;-73
2023/01/03 07:27:04;;;;;;;26.75;15.75;;;;;;;6.21;80.20;98109.47;1784167;77;26646;-73
2023/01/03 07:29:31;;;;;;;23.38;14.95;;;;;;;6.32;80.31;98119.86;1784488;78;25650;-72
2023/01/03 07:31:58;;;;;;;21.15;13.15;;;;;;;6.39;80.30;98120.89;1794589;77;27341;-75
2023/01/03 07:34:25;;;;;;;21.68;11.43;;;;;;;6.47;80.26;98126.23;1834551;77;25924;-73
2023/01/03 07:36:51;;;;;;;19.42;12.10;;;;;;;6.55;80.25;98134.77;1842260;77;25665;-74
2023/01/03 07:39:18;;;;;;;17.12;10.72;;;;;;;6.63;80.19;98131.61;1803253;77;25668;-73
2023/01/03 07:44:29;;;;;;;21.87;10.85;;;;;;;6.77;80.06;98136.27;1803122;77;27462;-73
2023/01/03 07:46:56;;;;;;;16.20;10.80;;;;;;;6.85;79.99;98144.83;1842290;77;25715;-73
2023/01/03 07:49:23;;;;;;;19.05;11.53;;;;;;;6.91;79.87;98146.81;1805661;77;25771;-75
2023/01/03 07:51:49;;;;;;;19.87;11.40;;;;;;;6.98;79.83;98151.02;1813133;77;26465;-75
2023/01/03 07:54:16;;;;;;;20.20;11.35;;;;;;;7.03;79.76;98158.88;1809684;77;25745;-73
2023/01/03 07:56:43;;;;;;;17.82;11.50;;;;;;;7.08;79.66;98159.21;1804794;77;27362;-73
2023/01/03 07:59:09;;;;;;;25.82;13.68;;;;;;;7.13;79.55;98159.52;1795136;77;25657;-73
2023/01/03 08:01:36;;;;;;;22.75;13.18;;;;;;;7.20;79.50;98171.77;1795211;77;25619;-75
2023/01/03 08:04:03;;;;;;;18.73;11.68;;;;;;;7.24;79.43;98169.09;1839367;77;25662;-73
2023/01/03 08:06:30;;;;;;;20.27;11.53;;;;;;;7.28;79.42;98178.45;1816556;77;25740;-75
2023/01/03 08:14:27;;;;;;;19.92;12.93;;;;;;;7.36;79.25;98189.20;1814224;77;25732;-75
2023/01/03 08:16:54;;;;;;;18.23;11.97;;;;;;;7.38;79.21;98185.80;1795162;77;25669;-73
2023/01/03 08:19:22;;;;;;;21.37;12.45;;;;;;;7.40;79.16;98185.13;1806173;77;25739;-73
2023/01/03 08:21:49;;;;;;;14.45;9.08;;;;;;;7.44;79.09;98191.84;1815809;77;27591;-74
2023/01/03 08:24:16;;;;;;;14.03;9.40;;;;;;;7.49;79.02;98192.66;1835562;77;25797;-76
2023/01/03 08:26:42;;;;;;;15.10;9.83;;;;;;;7.55;78.96;98192.81;1801464;77;25210;-73
2023/01/03 08:29:09;;;;;;;17.00;10.28;;;;;;;7.59;78.82;98191.47;1795164;77;25735;-73
2023/01/03 08:31:41;;;;;;;14.35;9.25;;;;;;;7.66;78.73;98189.41;1778086;77;25200;-72
2023/01/03 08:34:11;;;;;;;15.65;9.43;;;;;;;7.70;78.64;98195.63;1731645;81;27419;-73
2023/01/03 08:36:45;;;;;;;14.83;7.83;;;;;;;7.74;78.50;98194.24;1762310;81;25760;-75
2023/01/03 08:39:16;;;;;;;11.43;8.30;;;;;;;7.78;78.41;98193.40;1749025;80;25767;-74
2023/01/03 08:41:47;;;;;;;11.38;8.25;;;;;;;7.83;78.27;98193.73;1705036;83;25847;-73
2023/01/03 08:44:14;;;;;;;13.18;8.98;;;;;;;7.88;78.16;98194.02;1738088;81;25945;-74
2023/01/03 08:46:45;;;;;;;15.58;10.32;;;;;;;7.93;78.06;98191.15;1704802;83;27357;-74
2023/01/03 08:49:13;;;;;;;13.32;9.15;;;;;;;7.98;77.94;98197.33;1699660;82;25877;-74
2023/01/03 08:51:39;;;;;;;17.50;10.43;;;;;;;8.04;77.81;98194.45;1702641;82;25826;-73
2023/01/03 08:54:06;;;;;;;13.30;9.43;;;;;;;8.08;77.74;98199.82;1704326;81;25712;-73
2023/01/03 08:56:33;;;;;;;12.85;9.25;;;;;;;8.13;77.62;98195.57;1701890;82;25742;-73
2023/01/03 08:59:00;;;;;;;15.93;9.48;;;;;;;8.17;77.56;98199.59;1702501;82;28353;-74
2023/01/03 09:01:27;;;;;;;11.22;8.88;;;;;;;8.21;77.46;98196.86;1702804;82;25723;-75
2023/01/03 09:03:54;;;;;;;11.33;8.35;;;;;;;8.25;77.31;98199.53;1702767;81;25689;-72
2023/01/03 09:06:20;;;;;;;14.85;8.53;;;;;;;8.30;77.25;98194.98;1702898;82;26450;-75
2023/01/03 09:08:47;;;;;;;15.53;9.10;;;;;;;8.36;77.20;98202.86;1700155;81;25767;-73
2023/01/03 09:11:14;;;;;;;9.10;6.35;;;;;;;8.42;77.18;98208.89;1706126;82;28180;-74
2023/01/03 09:13:40;;;;;;;10.18;6.42;;;;;;;8.43;76.69;98207.88;1706528;81;25804;-74
2023/01/03 09:16:10;;;;;;;10.20;6.53;;;;;;;8.48;76.58;98213.55;1706542;82;25792;-73
2023/01/03 09:18:39;;;;;;;7.60;5.05;;;;;;;8.52;76.41;98217.05;1702805;81;25757;-73
2023/01/03 09:21:07;;;;;;;7.15;4.95;;;;;;;8.55;76.09;98210.48;1699813;81;25734;-73
2023/01/03 09:23:35;;;;;;;7.00;4.58;;;;;;;8.59;75.89;98218.51;1702871;82;27397;-73
2023/01/03 09:26:02;;;;;;;5.80;3.52;;;;;;;8.62;75.67;98210.92;1699876;81;25775;-74
2023/01/03 09:28:29;;;;;;;6.10;4.37;;;;;;;8.65;75.41;98209.73;1702794;82;25779;-73
2023/01/03 09:30:56;;;;;;;5.85;4.28;;;;;;;8.65;75.26;98206.53;1709776;81;25978;-73
2023/01/03 09:33:23;;;;;;;6.30;4.22;;;;;;;8.69;75.05;98215.09;1741770;81;25811;-73
2023/01/03 09:35:53;;;;;;;7.75;4.53;;;;;;;8.71;74.92;98221.11;1748860;80;28368;-74
2023/01/03 09:38:21;;;;;;;6.78;4.30;;;;;;;8.72;74.75;98217.41;1752818;80;25680;-76
2023/01/03 09:41:08;;;;;;;6.42;4.35;;;;;;;8.71;74.62;98219.77;1758863;81;25787;-73
2023/01/03 09:43:45;;;;;;;6.40;4.60;;;;;;;8.73;74.33;98214.20;1749401;80;25838;-74
2023/01/03 09:46:23;;;;;;;7.53;4.47;;;;;;;8.74;74.15;98209.99;1799308;77;25765;-73
2023/01/03 09:48:52;;;;;;;9.13;4.55;;;;;;;8.73;74.14;98211.01;1814374;77;27387;-73
2023/01/03 10:06:08;;;;;;;9.40;5.72;;;;;;;8.59;73.62;98214.47;1738679;82;25706;-73
2023/01/03 10:08:58;;;;;;;11.08;4.60;;;;;;;8.56;73.35;98209.47;1714260;82;26129;-73
2023/01/03 10:11:49;;;;;;;7.85;3.98;;;;;;;8.59;73.57;98210.44;1702011;81;26506;-74
2023/01/03 10:14:34;;;;;;;6.50;4.15;;;;;;;8.65;73.42;98208.39;1716130;81;43271;-73
2023/01/03 10:17:16;;;;;;;6.70;4.30;;;;;;;8.72;73.22;98220.09;1714492;81;27367;-74
2023/01/03 10:19:53;;;;;;;7.53;4.78;;;;;;;8.76;72.96;98210.66;1717482;82;25722;-74
2023/01/03 10:22:26;;;;;;;7.87;4.62;;;;;;;8.80;72.99;98214.67;1713290;81;25786;-74
2023/01/03 10:25:10;;;;;;;9.25;4.40;;;;;;;8.85;72.84;98209.56;1714070;82;25789;-75
2023/01/03 10:28:00;;;;;;;7.28;3.87;;;;;;;8.92;72.66;98213.73;1717378;81;25868;-73
2023/01/03 10:30:56;;;;;;;7.55;4.85;;;;;;;8.94;72.27;98216.55;1671208;81;27394;-73
2023/01/03 10:33:44;;;;;;;7.42;4.60;;;;;;;9.03;72.57;98222.72;1673548;85;25703;-73
2023/01/03 10:36:12;;;;;;;6.55;4.25;;;;;;;9.05;72.19;98219.34;1592671;89;25815;-73
2023/01/03 10:38:39;;;;;;;7.15;4.30;;;;;;;9.03;72.14;98223.56;1627401;87;26560;-74
2023/01/03 10:41:17;;;;;;;6.47;4.17;;;;;;;9.08;72.01;98219.47;1613778;87;25836;-73
2023/01/03 10:43:57;;;;;;;8.00;4.62;;;;;;;9.05;71.51;98222.55;1587349;89;28285;-73
2023/01/03 10:46:26;;;;;;;7.42;4.83;;;;;;;9.03;71.50;98214.14;1559459;90;25846;-73
2023/01/03 10:48:55;;;;;;;5.08;3.87;;;;;;;9.04;71.38;98216.32;1559912;90;25839;-75
2023/01/03 10:51:39;;;;;;;8.23;4.58;;;;;;;9.02;71.21;98210.27;1559811;90;26718;-73
2023/01/03 10:54:23;;;;;;;7.28;4.50;;;;;;;9.02;71.20;98204.89;1556878;90;26045;-75
2023/01/03 10:56:50;;;;;;;5.55;4.30;;;;;;;9.01;71.08;98200.52;1575451;89;27404;-73
2023/01/03 10:59:27;;;;;;;7.47;4.40;;;;;;;8.96;70.81;98198.36;1579467;89;25843;-74
2023/01/03 11:02:12;;;;;;;9.68;5.53;;;;;;;8.96;70.84;98202.91;1579486;89;25785;-73
2023/01/03 11:04:39;;;;;;;7.83;5.67;;;;;;;8.93;70.65;98201.44;1579765;89;25766;-74
2023/01/03 11:07:13;;;;;;;7.92;5.55;;;;;;;8.89;70.76;98200.12;1592400;88;25811;-74
2023/01/03 11:09:52;;;;;;;9.65;6.20;;;;;;;8.86;70.72;98195.09;1627799;85;27283;-73
2023/01/03 11:12:40;;;;;;;10.40;6.50;;;;;;;8.87;70.90;98199.45;1680139;82;25690;-75
2023/01/03 11:15:33;;;;;;;8.85;5.65;;;;;;;8.82;70.56;98197.80;1746741;81;25308;-75
2023/01/03 11:18:07;;;;;;;8.28;5.92;;;;;;;8.75;70.59;98192.83;1710079;82;26003;-74
2023/01/03 11:21:08;;;;;;;7.90;5.25;;;;;;;8.74;70.92;98196.53;1645033;85;25847;-74
2023/01/03 11:23:57;;;;;;;7.20;5.35;;;;;;;8.79;70.94;98198.19;1644604;84;27465;-75
2023/01/03 11:26:59;;;;;;;7.78;4.97;;;;;;;8.84;70.81;98193.08;1623773;86;25770;-73
2023/01/03 11:29:40;;;;;;;9.30;5.35;;;;;;;8.88;70.79;98198.44;1562702;89;25887;-73
2023/01/03 11:32:30;;;;;;;7.62;5.40;;;;;;;8.92;70.51;98195.73;1502170;92;26008;-73
2023/01/03 11:35:26;;;;;;;9.68;4.97;;;;;;;8.94;70.48;98195.01;1506287;93;25825;-72
2023/01/03 11:38:16;;;;;;;6.80;4.62;;;;;;;8.95;70.28;98193.16;1506453;93;27383;-73
2023/01/03 11:40:48;;;;;;;7.50;5.20;;;;;;;8.95;70.38;98195.34;1498404;93;25576;-75
2023/01/03 11:43:53;;;;;;;8.08;5.42;;;;;;;8.99;70.27;98195.31;1573041;89;25817;-73
2023/01/03 11:46:40;;;;;;;7.80;4.62;;;;;;;9.03;70.10;98195.28;1579106;89;25851;-73
2023/01/03 11:49:33;;;;;;;8.98;4.62;;;;;;;9.09;70.16;98196.39;1583941;88;25817;-73
2023/01/03 11:52:35;;;;;;;7.80;4.78;;;;;;;9.11;69.82;98198.40;1579765;90;27410;-74
2023/01/03 11:55:18;;;;;;;7.70;5.20;;;;;;;9.11;69.61;98193.02;1578922;88;26330;-75
2023/01/03 11:58:19;;;;;;;8.08;4.85;;;;;;;9.10;69.41;98190.50;1573227;89;25898;-73
2023/01/03 12:01:09;;;;;;;7.70;4.65;;;;;;;9.14;69.37;98183.23;1572935;89;25574;-72
2023/01/03 12:04:10;;;;;;;6.40;4.10;;;;;;;9.17;69.15;98185.56;1526154;92;25955;-74
2023/01/03 12:06:57;;;;;;;5.65;4.05;;;;;;;9.20;69.18;98185.68;1512990;93;27415;-74
2023/01/03 12:09:40;;;;;;;6.28;3.87;;;;;;;9.24;68.92;98189.69;1526789;92;25797;-73
2023/01/03 12:12:32;;;;;;;3.77;3.08;;;;;;;9.26;68.63;98185.80;1528564;92;25849;-73
2023/01/03 12:15:04;;;;;;;4.30;3.00;;;;;;;9.28;68.29;98187.80;1470346;96;25776;-72
2023/01/03 12:17:56;;;;;;;4.65;3.27;;;;;;;9.29;67.87;98185.44;1500802;92;25897;-72
2023/01/03 12:20:35;;;;;;;4.83;3.17;;;;;;;9.28;67.61;98177.03;1525027;92;28225;-74
2023/01/03 12:23:19;;;;;;;7.35;3.92;;;;;;;9.30;67.47;98180.86;1467434;96;25883;-73
2023/01/03 12:25:54;;;;;;;4.60;3.58;;;;;;;9.27;67.34;98177.20;1464800;96;25873;-76
2023/01/03 12:28:37;;;;;;;6.55;3.80;;;;;;;9.26;67.29;98183.61;1466865;95;25920;-75
2023/01/03 12:31:21;;;;;;;5.08;3.22;;;;;;;9.23;67.08;98174.55;1482193;95;25561;-73
2023/01/03 12:34:25;;;;;;;7.22;3.40;;;;;;;9.16;66.84;98172.27;1486636;96;27404;-74
2023/01/03 12:37:21;;;;;;;5.78;3.80;;;;;;;9.14;66.95;98170.27;1439086;97;25927;-74
2023/01/03 12:39:55;;;;;;;4.33;3.20;;;;;;;9.12;67.04;98169.10;1513113;92;26660;-73
2023/01/03 12:42:39;;;;;;;4.58;3.30;;;;;;;9.12;66.84;98170.45;1510930;92;25805;-73
2023/01/03 12:45:25;;;;;;;6.15;3.50;;;;;;;9.11;66.70;98169.28;1509558;94;25888;-73
2023/01/03 12:48:20;;;;;;;6.70;3.75;;;;;;;9.13;66.70;98169.43;1510272;94;27399;-74
2023/01/03 12:50:50;;;;;;;7.00;3.72;;;;;;;9.16;66.67;98169.58;1480842;96;25853;-73
2023/01/03 12:53:45;;;;;;;4.85;3.42;;;;;;;9.16;66.64;98169.58;1577049;90;25801;-74
2023/01/03 12:56:43;;;;;;;7.62;4.08;;;;;;;9.18;66.65;98171.55;1583210;88;26496;-73
2023/01/03 12:59:37;;;;;;;5.62;3.65;;;;;;;9.21;66.67;98168.50;1602303;89;25824;-73
2023/01/03 13:02:19;;;;;;;6.90;4.15;;;;;;;9.23;66.45;98174.03;1667058;83;27636;-75
2023/01/03 13:04:51;;;;;;;7.42;3.87;;;;;;;9.25;66.58;98168.47;1611193;88;25866;-74
2023/01/03 13:07:26;;;;;;;5.72;4.05;;;;;;;9.26;66.26;98169.64;1586679;87;25856;-73
2023/01/03 13:10:03;;;;;;;6.80;4.00;;;;;;;9.21;65.89;98169.84;1604104;87;25775;-74
2023/01/03 13:12:36;;;;;;;8.73;4.95;;;;;;;9.21;65.87;98172.54;1584071;87;25935;-73